Huaiyin, China
Current Conditions -  °F | °C
As of 2:00 AM on Friday 31 Oct 2014 (Local Time) from ZSNJ Reporting Station
Haze Haze  
Wind Chill: 61°   Ceiling: 900
Heat Index: 61°   Visibility: 2.1mi
Dew Point: 61°   Wind: 2mph
Humidity: 100%   Direction: 270°W
Pressure: 30"   Gusts: NA
Location:  33.6°N, 119.02°E
Report Text: ZSNJ 301800Z 27001MPS 3500 BR BKN009 OVC033 16/16 Q1016 NOSIG
Loading
Personal Weather Stations






























Interactive Weather Map
Tropical Storm Tracking
New forecast layout! Learn more

10-Day Weather Forecast

Advertisements
Track Severe Weather on mobile